Time;durP1;ratioP1;P1;durP2;ratioP2;P2;SDS_P1;SDS_P2;PMS_P1;PMS_P2;Temp;Humidity;BMP_temperature;BMP_pressure;BME280_temperature;BME280_humidity;BME280_pressure;Samples;Min_cycle;Max_cycle;Signal;HPM_P1;HPM_P2
2022/03/14 00:01:54;;;;;;;;;2.00;2.00;17.00;99.90;;;;;;5006907;28;10015;-47
2022/03/14 00:04:25;;;;;;;;;2.50;0.75;17.00;99.90;;;;;;5008785;28;10707;-48
2022/03/14 00:06:56;;;;;;;;;0.00;0.00;17.00;99.90;;;;;;5009579;28;10130;-46
2022/03/14 00:09:27;;;;;;;;;1.50;1.50;17.00;99.90;;;;;;5012770;28;10217;-47
2022/03/14 00:11:59;;;;;;;;;3.75;2.00;17.00;99.90;;;;;;5011390;28;10841;-47
2022/03/14 00:14:29;;;;;;;;;1.75;1.75;17.00;99.90;;;;;;5017208;28;10192;-46
2022/03/14 00:17:02;;;;;;;;;1.00;1.00;16.90;99.90;;;;;;5012348;28;10260;-47
2022/03/14 00:19:33;;;;;;;;;1.00;1.00;16.90;99.90;;;;;;5008248;28;10617;-49
2022/03/14 00:22:04;;;;;;;;;2.00;1.00;16.90;99.90;;;;;;5015129;28;10829;-45
2022/03/14 00:24:35;;;;;;;;;0.50;0.50;16.90;99.90;;;;;;5013652;28;10432;-47
2022/03/14 00:27:06;;;;;;;;;0.00;0.00;16.90;99.90;;;;;;5014869;28;10957;-44
2022/03/14 00:29:37;;;;;;;;;2.50;1.50;16.90;99.90;;;;;;5010176;28;10473;-46
2022/03/14 00:32:09;;;;;;;;;2.00;2.00;16.90;99.90;;;;;;5011607;28;10304;-50
2022/03/14 00:34:39;;;;;;;;;3.00;3.00;16.80;99.90;;;;;;5020411;28;11113;-48
2022/03/14 00:37:11;;;;;;;;;2.00;2.00;16.80;99.90;;;;;;5014664;28;10470;-47
2022/03/14 00:39:41;;;;;;;;;1.50;1.50;16.80;99.90;;;;;;5015625;28;10562;-45
2022/03/14 00:42:13;;;;;;;;;2.00;2.00;16.80;99.90;;;;;;5009022;28;11297;-48
2022/03/14 00:44:44;;;;;;;;;2.25;2.25;16.80;99.90;;;;;;5016241;28;10625;-46
2022/03/14 00:47:16;;;;;;;;;4.25;4.25;16.70;99.90;;;;;;5016816;28;10738;-48
2022/03/14 00:49:48;;;;;;;;;3.75;3.75;16.80;99.90;;;;;;5008903;28;10750;-44
2022/03/14 00:52:18;;;;;;;;;3.00;3.00;16.80;99.90;;;;;;5011561;28;10718;-46
2022/03/14 00:54:51;;;;;;;;;5.00;5.00;16.70;99.90;;;;;;5013781;28;10868;-48
2022/03/14 00:57:21;;;;;;;;;4.50;4.50;16.70;99.90;;;;;;5018108;28;10834;-49
2022/03/14 00:59:52;;;;;;;;;6.50;5.50;16.70;99.90;;;;;;5014878;28;11149;-46
2022/03/14 01:02:22;;;;;;;;;8.50;6.75;16.60;99.90;;;;;;5012547;28;10790;-47
2022/03/14 01:04:55;;;;;;;;;6.50;6.50;16.60;99.90;;;;;;5011630;28;11128;-43
2022/03/14 01:07:26;;;;;;;;;4.00;4.00;16.70;99.90;;;;;;5015131;28;10963;-47
2022/03/14 01:09:57;;;;;;;;;8.00;8.00;16.70;99.90;;;;;;5014595;28;11717;-47
2022/03/14 01:12:29;;;;;;;;;27.25;27.25;16.60;99.90;;;;;;5012106;28;11134;-49
2022/03/14 01:14:59;;;;;;;;;24.25;24.25;16.60;99.90;;;;;;5015043;28;11565;-46
2022/03/14 01:17:31;;;;;;;;;22.50;22.50;16.50;99.90;;;;;;5015321;28;12322;-45
2022/03/14 01:20:02;;;;;;;;;16.00;16.00;16.60;99.90;;;;;;5016075;28;11548;-48
2022/03/14 01:22:35;;;;;;;;;15.75;14.50;16.50;99.90;;;;;;5015752;28;11477;-47
2022/03/14 01:25:06;;;;;;;;;15.25;15.00;16.50;99.90;;;;;;5017087;28;11483;-49
2022/03/14 01:27:37;;;;;;;;;18.00;18.00;16.50;99.90;;;;;;5028038;28;11426;-44
2022/03/14 01:30:08;;;;;;;;;18.00;18.00;16.50;99.90;;;;;;5012549;28;11501;-46
2022/03/14 01:32:39;;;;;;;;;17.25;17.25;16.50;99.90;;;;;;5011894;28;11982;-45
2022/03/14 01:35:10;;;;;;;;;18.25;18.25;16.50;99.90;;;;;;5013454;28;11552;-44
2022/03/14 01:37:42;;;;;;;;;19.25;19.25;16.60;99.90;;;;;;5010634;28;11511;-47
2022/03/14 01:40:15;;;;;;;;;18.00;18.00;16.60;99.90;;;;;;5009448;28;12330;-47
2022/03/14 01:42:48;;;;;;;;;18.00;18.00;16.60;99.90;;;;;;5005473;28;11525;-46
2022/03/14 01:45:20;;;;;;;;;18.50;18.00;16.50;99.90;;;;;;5013409;28;11481;-47
2022/03/14 01:47:51;;;;;;;;;18.25;18.25;16.50;99.90;;;;;;5012636;28;11491;-49
2022/03/14 01:50:23;;;;;;;;;11.75;11.75;16.50;99.90;;;;;;5014158;28;12313;-48
2022/03/14 01:52:53;;;;;;;;;12.25;10.75;16.50;99.90;;;;;;5012047;28;11546;-46
2022/03/14 01:55:26;;;;;;;;;6.00;6.00;16.50;99.90;;;;;;5012928;28;11229;-47
2022/03/14 01:57:57;;;;;;;;;3.50;3.50;16.40;99.90;;;;;;5008718;28;11225;-47
2022/03/14 02:00:28;;;;;;;;;3.75;2.25;16.40;99.90;;;;;;5007684;28;11159;-47
2022/03/14 02:02:59;;;;;;;;;2.00;2.00;16.40;99.90;;;;;;5007433;28;10722;-48
2022/03/14 02:05:29;;;;;;;;;1.00;1.00;16.30;99.90;;;;;;5010026;28;10541;-46
2022/03/14 02:07:59;;;;;;;;;1.75;1.75;16.40;99.90;;;;;;5010935;28;10639;-47
2022/03/14 02:10:29;;;;;;;;;2.00;2.00;16.40;99.90;;;;;;5011814;28;10451;-46
2022/03/14 02:13:09;;;;;;;;;0.00;0.00;16.30;99.90;;;;;;5015032;28;10569;-47
2022/03/14 02:15:40;;;;;;;;;2.00;2.00;16.30;99.90;;;;;;5025996;28;10385;-45
2022/03/14 02:18:10;;;;;;;;;2.50;2.00;16.30;99.90;;;;;;5011720;28;10565;-45
2022/03/14 02:20:41;;;;;;;;;2.00;2.00;16.30;99.90;;;;;;5005390;28;10653;-44
2022/03/14 02:23:12;;;;;;;;;2.25;1.50;16.20;99.90;;;;;;5006734;28;10576;-45
2022/03/14 02:25:51;;;;;;;;;1.50;1.50;16.20;99.90;;;;;;5007254;28;11276;-45
2022/03/14 02:28:26;;;;;;;;;3.00;3.00;16.20;99.90;;;;;;5005793;28;10584;-46
2022/03/14 02:30:55;;;;;;;;;1.50;1.50;16.30;99.90;;;;;;5005639;28;10549;-46
2022/03/14 02:33:26;;;;;;;;;1.50;1.50;16.20;99.90;;;;;;5009898;28;10660;-45
2022/03/14 02:35:57;;;;;;;;;1.25;1.25;16.10;99.90;;;;;;5009938;28;10611;-46
2022/03/14 02:38:28;;;;;;;;;2.75;2.00;16.10;99.90;;;;;;5010672;28;10508;-48
2022/03/14 02:40:58;;;;;;;;;1.00;1.00;16.20;99.90;;;;;;5005754;28;10782;-45
2022/03/14 02:43:29;;;;;;;;;4.75;3.25;16.20;99.90;;;;;;5010887;28;10647;-45
2022/03/14 02:45:59;;;;;;;;;2.25;2.25;16.10;99.90;;;;;;5007103;28;10733;-44
2022/03/14 02:48:30;;;;;;;;;2.00;2.00;16.10;99.90;;;;;;5007918;28;11467;-44
2022/03/14 02:51:00;;;;;;;;;3.75;3.00;16.20;99.90;;;;;;5006112;28;10563;-48
2022/03/14 02:53:31;;;;;;;;;2.00;2.00;16.10;99.90;;;;;;5014319;28;10684;-45
2022/03/14 02:56:01;;;;;;;;;3.00;2.00;16.10;99.90;;;;;;5008116;28;11406;-46
2022/03/14 02:58:32;;;;;;;;;3.00;1.00;16.10;99.90;;;;;;5014061;28;10781;-44
2022/03/14 03:01:04;;;;;;;;;2.00;2.00;16.00;99.90;;;;;;5006594;28;10550;-46
2022/03/14 03:03:35;;;;;;;;;3.00;3.00;16.00;99.90;;;;;;5011501;28;10822;-47
2022/03/14 03:06:09;;;;;;;;;1.00;1.00;16.00;99.90;;;;;;5011627;28;10677;-46
2022/03/14 03:08:44;;;;;;;;;2.75;2.75;15.90;99.90;;;;;;5003005;28;10911;-44
2022/03/14 03:11:15;;;;;;;;;2.00;2.00;15.90;99.90;;;;;;5014793;28;10863;-48
2022/03/14 03:13:48;;;;;;;;;3.00;3.00;15.90;99.90;;;;;;5008035;28;10945;-47
2022/03/14 03:16:20;;;;;;;;;3.75;2.25;15.90;99.90;;;;;;5014571;28;11873;-47
2022/03/14 03:18:51;;;;;;;;;1.75;1.50;15.80;99.90;;;;;;5005209;28;10880;-47
2022/03/14 03:21:22;;;;;;;;;3.75;3.00;15.80;99.90;;;;;;5010907;28;10852;-46
2022/03/14 03:23:52;;;;;;;;;3.25;3.25;15.80;99.90;;;;;;5004983;28;11160;-46
2022/03/14 03:26:24;;;;;;;;;3.00;3.00;15.80;99.90;;;;;;5008472;28;10837;-46
2022/03/14 03:28:54;;;;;;;;;2.00;2.00;15.80;99.90;;;;;;5009451;28;11005;-49
2022/03/14 03:31:28;;;;;;;;;3.00;3.00;15.70;99.90;;;;;;5009625;28;10931;-48
2022/03/14 03:33:59;;;;;;;;;3.00;3.00;15.70;99.90;;;;;;5006007;28;10910;-46
2022/03/14 03:36:29;;;;;;;;;3.00;3.00;15.70;99.90;;;;;;5011880;28;10828;-50
2022/03/14 03:39:00;;;;;;;;;3.00;3.00;15.80;99.90;;;;;;5006473;28;10825;-46
2022/03/14 03:41:31;;;;;;;;;2.00;1.25;15.70;99.90;;;;;;5007304;28;10838;-45
2022/03/14 03:44:02;;;;;;;;;3.75;3.00;15.70;99.90;;;;;;5006612;28;11836;-49
2022/03/14 03:46:33;;;;;;;;;2.75;2.75;15.60;99.90;;;;;;5011407;28;10901;-45
2022/03/14 03:49:07;;;;;;;;;3.50;3.00;15.50;99.90;;;;;;5007196;28;11031;-56
2022/03/14 03:51:39;;;;;;;;;3.00;3.00;15.50;99.90;;;;;;5012697;28;10906;-50
2022/03/14 03:54:11;;;;;;;;;3.25;3.25;15.50;99.90;;;;;;5022957;28;10777;-47
2022/03/14 03:56:41;;;;;;;;;2.50;2.50;15.40;99.90;;;;;;5014261;28;10824;-48
2022/03/14 03:59:12;;;;;;;;;4.75;3.50;15.40;99.90;;;;;;5007045;28;12120;-46
2022/03/14 04:01:46;;;;;;;;;3.00;3.00;15.40;99.90;;;;;;5009077;28;10934;-48
2022/03/14 04:04:17;;;;;;;;;2.75;2.00;15.40;99.90;;;;;;5011998;28;10978;-45
2022/03/14 04:06:56;;;;;;;;;3.00;1.75;15.40;99.90;;;;;;5008313;28;11115;-47
2022/03/14 04:09:27;;;;;;;;;1.00;1.00;15.40;99.90;;;;;;5014301;28;10786;-47
2022/03/14 04:11:58;;;;;;;;;4.00;2.75;15.30;99.90;;;;;;5012191;28;11009;-49
2022/03/14 04:14:32;;;;;;;;;3.75;3.25;15.30;99.90;;;;;;5014808;28;10865;-48
2022/03/14 04:17:04;;;;;;;;;3.25;2.00;15.30;99.90;;;;;;5012136;28;11057;-46
2022/03/14 04:19:41;;;;;;;;;4.25;3.00;15.30;99.90;;;;;;5009130;28;11136;-50
2022/03/14 04:22:14;;;;;;;;;3.00;3.00;15.30;99.90;;;;;;5010771;28;10941;-46
2022/03/14 04:24:46;;;;;;;;;2.00;2.00;15.20;99.90;;;;;;5012832;28;11103;-46
2022/03/14 04:27:16;;;;;;;;;3.75;3.75;15.20;99.90;;;;;;5012709;28;11085;-47
2022/03/14 04:29:48;;;;;;;;;3.00;3.00;15.20;99.90;;;;;;5014602;28;11177;-46
2022/03/14 04:32:20;;;;;;;;;2.75;2.75;15.20;99.90;;;;;;5010671;28;11114;-49
2022/03/14 04:34:51;;;;;;;;;4.00;4.00;15.20;99.90;;;;;;5012601;28;11039;-49
2022/03/14 04:37:21;;;;;;;;;3.00;3.00;15.20;99.90;;;;;;5023711;28;10967;-47
2022/03/14 04:39:51;;;;;;;;;2.50;2.50;15.20;99.90;;;;;;5014118;28;11089;-49
2022/03/14 04:42:24;;;;;;;;;3.50;3.50;15.20;99.90;;;;;;5012855;28;10925;-47
2022/03/14 04:44:54;;;;;;;;;3.50;3.50;15.20;99.90;;;;;;5014570;28;11653;-48
2022/03/14 04:47:26;;;;;;;;;4.75;2.00;15.20;99.90;;;;;;5004827;28;11170;-48
2022/03/14 04:49:57;;;;;;;;;2.00;2.00;15.10;99.90;;;;;;5015546;28;11689;-49
2022/03/14 04:52:30;;;;;;;;;2.00;2.00;15.10;99.90;;;;;;5014549;28;11178;-49
2022/03/14 04:55:00;;;;;;;;;3.25;3.25;15.10;99.90;;;;;;5012918;28;10768;-46
2022/03/14 04:57:30;;;;;;;;;3.00;2.00;15.10;99.90;;;;;;5011755;28;11052;-45
2022/03/14 05:00:00;;;;;;;;;3.75;3.25;15.10;99.90;;;;;;5007732;28;11002;-47
2022/03/14 05:02:32;;;;;;;;;1.75;1.75;15.10;99.90;;;;;;5010428;28;11292;-47
2022/03/14 05:05:03;;;;;;;;;4.25;3.50;15.00;99.90;;;;;;5013134;28;11333;-46
2022/03/14 05:07:33;;;;;;;;;4.50;3.00;15.00;99.90;;;;;;5012449;28;12183;-49
2022/03/14 05:10:06;;;;;;;;;3.25;3.25;15.00;99.90;;;;;;5010278;28;11161;-49
2022/03/14 05:12:36;;;;;;;;;4.00;4.00;15.00;99.90;;;;;;5017008;28;11470;-48
2022/03/14 05:15:09;;;;;;;;;3.75;3.25;14.90;99.90;;;;;;5011276;28;11238;-46
2022/03/14 05:17:39;;;;;;;;;3.50;3.50;14.90;99.90;;;;;;5010762;28;11424;-46
2022/03/14 05:20:11;;;;;;;;;3.00;3.00;15.00;99.90;;;;;;5006680;28;11638;-46
2022/03/14 05:22:50;;;;;;;;;3.00;3.00;14.90;99.90;;;;;;5010007;28;11260;-49
2022/03/14 05:25:21;;;;;;;;;4.00;4.00;14.80;99.90;;;;;;5011446;28;11467;-47
2022/03/14 05:27:53;;;;;;;;;4.00;2.00;14.80;99.90;;;;;;5017249;28;11485;-45
2022/03/14 05:30:25;;;;;;;;;5.50;4.00;14.80;99.90;;;;;;5010481;28;11448;-46
2022/03/14 05:32:56;;;;;;;;;6.00;4.00;14.70;99.90;;;;;;5014503;28;11509;-46
2022/03/14 05:35:28;;;;;;;;;4.50;4.50;14.70;99.90;;;;;;5015146;28;11489;-46
2022/03/14 05:37:58;;;;;;;;;4.50;3.50;14.80;99.90;;;;;;5009303;28;11493;-47
2022/03/14 05:40:29;;;;;;;;;3.50;2.00;14.70;99.90;;;;;;5012890;28;11624;-49
2022/03/14 05:43:08;;;;;;;;;4.25;3.25;14.70;99.90;;;;;;5010805;28;11490;-47
2022/03/14 05:45:39;;;;;;;;;4.50;3.75;14.70;99.90;;;;;;5010397;28;11325;-45
2022/03/14 05:48:09;;;;;;;;;3.00;1.50;14.70;99.90;;;;;;5014778;28;11506;-47
2022/03/14 05:50:40;;;;;;;;;3.50;3.50;14.70;99.90;;;;;;5012300;28;11469;-45
2022/03/14 05:53:12;;;;;;;;;2.50;1.50;14.60;99.90;;;;;;5009117;28;11509;-45
2022/03/14 05:55:42;;;;;;;;;3.50;3.50;14.60;99.90;;;;;;5010219;28;11461;-44
2022/03/14 05:58:14;;;;;;;;;2.00;2.00;14.50;99.90;;;;;;5007537;28;11486;-48
2022/03/14 06:00:48;;;;;;;;;2.00;2.00;14.50;99.90;;;;;;5013093;28;11607;-47
2022/03/14 06:03:20;;;;;;;;;2.25;2.25;14.50;99.90;;;;;;5007265;28;11485;-46
2022/03/14 06:05:51;;;;;;;;;2.25;2.00;14.50;99.90;;;;;;5014749;28;11456;-45
2022/03/14 06:08:21;;;;;;;;;4.75;4.75;14.50;99.90;;;;;;5005761;28;11575;-47
2022/03/14 06:10:54;;;;;;;;;3.00;3.00;14.50;99.90;;;;;;5013141;28;11443;-48
2022/03/14 06:13:25;;;;;;;;;4.00;2.25;14.50;99.90;;;;;;5011680;28;11464;-46
2022/03/14 06:15:56;;;;;;;;;4.25;4.25;14.50;99.90;;;;;;5016184;28;11443;-50
2022/03/14 06:18:29;;;;;;;;;2.00;2.00;14.50;99.90;;;;;;5013998;28;11619;-45
2022/03/14 06:21:00;;;;;;;;;3.00;3.00;14.50;99.90;;;;;;5012423;28;11448;-46
2022/03/14 06:23:31;;;;;;;;;3.00;3.00;14.50;99.90;;;;;;5014275;28;12326;-43
2022/03/14 06:26:01;;;;;;;;;3.00;2.00;14.50;99.90;;;;;;5013728;28;11478;-46
2022/03/14 06:28:32;;;;;;;;;2.25;1.50;14.40;99.90;;;;;;5013271;28;11458;-45
2022/03/14 06:31:03;;;;;;;;;5.25;4.00;14.40;99.90;;;;;;5009371;28;11583;-47
2022/03/14 06:33:33;;;;;;;;;6.00;4.50;14.40;99.90;;;;;;5012722;28;11586;-46
2022/03/14 06:36:04;;;;;;;;;3.00;3.00;14.40;99.90;;;;;;5013471;28;11439;-46
2022/03/14 06:38:35;;;;;;;;;5.00;5.00;14.30;99.90;;;;;;5007643;28;12269;-47
2022/03/14 06:41:05;;;;;;;;;3.00;3.00;14.30;99.90;;;;;;5011335;28;11463;-48
2022/03/14 06:43:35;;;;;;;;;4.75;2.25;14.30;99.90;;;;;;5009592;28;11563;-45
2022/03/14 06:46:08;;;;;;;;;4.00;3.00;14.30;99.90;;;;;;5006483;28;11671;-48
2022/03/14 06:48:42;;;;;;;;;4.00;3.00;14.20;99.90;;;;;;5012437;28;11425;-49
2022/03/14 06:51:13;;;;;;;;;5.00;5.00;14.20;99.90;;;;;;5012657;28;11458;-48
2022/03/14 06:53:45;;;;;;;;;3.75;2.75;14.20;99.90;;;;;;5011515;28;11547;-48
2022/03/14 06:56:16;;;;;;;;;4.50;3.25;14.10;99.90;;;;;;5006849;28;11446;-48
2022/03/14 06:58:47;;;;;;;;;4.00;4.00;14.10;99.90;;;;;;5007302;28;11474;-48
2022/03/14 07:01:19;;;;;;;;;3.25;3.25;14.10;99.90;;;;;;5006264;28;11458;-46
2022/03/14 07:03:50;;;;;;;;;6.75;6.00;14.10;99.90;;;;;;5006365;28;11461;-46
2022/03/14 07:06:20;;;;;;;;;2.50;2.50;14.10;99.90;;;;;;5008482;28;11494;-46
2022/03/14 07:08:51;;;;;;;;;2.00;2.00;14.10;99.90;;;;;;5008567;28;11478;-49
2022/03/14 07:11:22;;;;;;;;;4.00;4.00;14.10;99.90;;;;;;5008971;28;11428;-45
2022/03/14 07:13:54;;;;;;;;;6.25;4.50;14.00;99.90;;;;;;5008331;28;11462;-46
2022/03/14 07:16:24;;;;;;;;;3.00;3.00;14.00;99.90;;;;;;5005730;28;11470;-47
2022/03/14 07:18:55;;;;;;;;;4.00;4.00;14.00;99.90;;;;;;5011563;28;11611;-48
2022/03/14 07:21:29;;;;;;;;;3.00;3.00;13.90;99.90;;;;;;5016562;28;11512;-47
2022/03/14 07:24:00;;;;;;;;;7.00;3.25;13.90;99.90;;;;;;5014938;28;11547;-47
2022/03/14 07:26:30;;;;;;;;;5.25;2.50;13.80;99.90;;;;;;5021610;28;11556;-48
2022/03/14 07:29:01;;;;;;;;;4.00;4.00;13.80;99.90;;;;;;5018715;28;11599;-49
2022/03/14 07:31:31;;;;;;;;;4.50;3.00;13.80;99.90;;;;;;5017929;28;11517;-48
2022/03/14 07:34:02;;;;;;;;;6.00;6.00;13.80;99.90;;;;;;5017392;28;11474;-46
2022/03/14 07:36:34;;;;;;;;;3.50;3.50;13.70;99.90;;;;;;5015593;28;11449;-48
2022/03/14 07:39:06;;;;;;;;;8.50;6.00;13.70;99.90;;;;;;5017868;28;11482;-48
2022/03/14 07:41:37;;;;;;;;;4.00;4.00;13.70;99.90;;;;;;5017296;28;11564;-46
2022/03/14 07:44:08;;;;;;;;;4.50;4.50;13.60;99.90;;;;;;5015311;28;11584;-46
2022/03/14 07:46:39;;;;;;;;;3.50;3.50;13.60;99.90;;;;;;5019996;28;11516;-46
2022/03/14 07:49:10;;;;;;;;;4.75;4.75;13.60;99.90;;;;;;5016762;28;11481;-46
2022/03/14 07:51:39;;;;;;;;;4.00;4.00;13.60;99.90;;;;;;5019505;28;11527;-45
2022/03/14 07:54:09;;;;;;;;;4.00;4.00;13.50;99.90;;;;;;5018459;28;11674;-45
2022/03/14 07:56:39;;;;;;;;;6.50;4.00;13.50;99.90;;;;;;5016571;28;12023;-48
2022/03/14 07:59:10;;;;;;;;;3.00;3.00;13.50;99.90;;;;;;5017331;28;11598;-46
2022/03/14 08:01:40;;;;;;;;;4.50;4.50;13.40;99.90;;;;;;5013362;28;11509;-47
2022/03/14 08:04:11;;;;;;;;;5.25;3.50;13.40;99.90;;;;;;5019970;28;11531;-48
2022/03/14 08:06:42;;;;;;;;;8.00;6.75;13.40;99.90;;;;;;5015986;28;11526;-47
2022/03/14 08:09:13;;;;;;;;;6.50;5.00;13.30;99.90;;;;;;5016714;28;11539;-48
2022/03/14 08:11:47;;;;;;;;;4.00;2.50;13.30;99.90;;;;;;5009023;28;11634;-47
2022/03/14 08:14:17;;;;;;;;;4.25;4.25;13.30;99.90;;;;;;5016838;28;12019;-47
2022/03/14 08:16:47;;;;;;;;;6.00;6.00;13.30;99.90;;;;;;5011995;28;12893;-46
2022/03/14 08:19:20;;;;;;;;;11.75;6.50;13.20;99.90;;;;;;5019633;28;11562;-47
2022/03/14 08:21:51;;;;;;;;;5.25;5.25;13.20;99.90;;;;;;5015856;28;11531;-45
2022/03/14 08:24:23;;;;;;;;;6.00;5.00;13.20;99.90;;;;;;5020042;28;11590;-49
2022/03/14 08:26:54;;;;;;;;;5.75;4.00;13.10;99.90;;;;;;5013829;28;11688;-47
2022/03/14 08:29:26;;;;;;;;;3.75;3.75;13.10;99.90;;;;;;5015593;28;11528;-47
2022/03/14 08:32:00;;;;;;;;;3.75;3.00;13.10;99.90;;;;;;5010321;28;11552;-45
2022/03/14 08:34:30;;;;;;;;;8.75;5.50;13.10;99.90;;;;;;5014846;28;11543;-45
2022/03/14 08:37:00;;;;;;;;;4.00;4.00;13.00;99.90;;;;;;5015096;28;12290;-45
2022/03/14 08:39:33;;;;;;;;;5.00;5.00;13.00;99.90;;;;;;5012522;28;11501;-47
2022/03/14 08:42:04;;;;;;;;;6.00;6.00;13.00;99.90;;;;;;5011409;28;11508;-49
2022/03/14 08:44:34;;;;;;;;;2.25;2.25;12.90;99.90;;;;;;5015648;28;11523;-45
2022/03/14 08:47:05;;;;;;;;;7.00;4.25;12.90;99.90;;;;;;5005309;28;11483;-46
2022/03/14 08:49:36;;;;;;;;;2.00;2.00;12.90;99.90;;;;;;5013500;28;11562;-49
2022/03/14 08:52:06;;;;;;;;;5.25;5.25;12.90;99.90;;;;;;5011961;28;11682;-47
2022/03/14 08:54:38;;;;;;;;;6.00;5.00;12.80;99.90;;;;;;5021578;28;11531;-48
2022/03/14 08:57:09;;;;;;;;;3.00;3.00;12.80;99.90;;;;;;5016261;28;11543;-45
2022/03/14 08:59:40;;;;;;;;;7.00;5.00;12.70;99.90;;;;;;5013455;28;11555;-47
2022/03/14 09:02:11;;;;;;;;;8.75;8.50;12.70;99.90;;;;;;5013479;28;11565;-48
2022/03/14 09:04:45;;;;;;;;;7.75;6.50;12.70;99.90;;;;;;5011845;28;11517;-47
2022/03/14 09:07:26;;;;;;;;;6.25;6.25;12.70;99.90;;;;;;5011750;28;11510;-45
2022/03/14 09:10:09;;;;;;;;;5.00;5.00;12.60;99.90;;;;;;5007484;28;11539;-46
2022/03/14 09:12:42;;;;;;;;;6.75;6.75;12.60;99.90;;;;;;5015418;28;11530;-48
2022/03/14 09:15:13;;;;;;;;;7.00;7.00;12.60;99.90;;;;;;5013478;28;12270;-47
2022/03/14 09:17:51;;;;;;;;;5.50;4.25;12.60;99.90;;;;;;5011821;28;11504;-46
2022/03/14 09:20:22;;;;;;;;;7.00;7.00;12.50;99.90;;;;;;5014218;28;11538;-46
2022/03/14 09:22:53;;;;;;;;;7.50;7.00;12.50;99.90;;;;;;5011434;28;11510;-46
2022/03/14 09:25:24;;;;;;;;;6.00;6.00;12.50;99.90;;;;;;5006907;28;11498;-45
2022/03/14 09:27:55;;;;;;;;;9.50;7.00;12.50;99.90;;;;;;5008392;28;11572;-45
2022/03/14 09:30:26;;;;;;;;;8.75;7.50;12.50;99.90;;;;;;5004368;28;11548;-47
2022/03/14 09:32:58;;;;;;;;;12.75;11.00;12.40;99.90;;;;;;5006555;28;11637;-45
2022/03/14 09:35:30;;;;;;;;;7.00;7.00;12.40;99.90;;;;;;5012196;28;11766;-45
2022/03/14 09:38:02;;;;;;;;;9.00;7.25;12.40;99.90;;;;;;5008962;28;11540;-47
2022/03/14 09:40:32;;;;;;;;;8.25;8.25;12.30;99.90;;;;;;5014241;28;11527;-45
2022/03/14 09:43:05;;;;;;;;;7.75;7.75;12.30;99.90;;;;;;5011352;28;11486;-46
2022/03/14 09:45:37;;;;;;;;;8.00;8.00;12.30;99.90;;;;;;5005904;28;11655;-45
2022/03/14 09:48:11;;;;;;;;;12.50;8.00;12.20;99.90;;;;;;5007124;28;11535;-47
2022/03/14 09:50:46;;;;;;;;;10.25;10.25;12.20;99.90;;;;;;5010045;28;11533;-45
2022/03/14 09:53:18;;;;;;;;;7.25;7.25;12.20;99.90;;;;;;5011348;28;11673;-49
2022/03/14 09:55:48;;;;;;;;;6.25;5.50;12.20;99.90;;;;;;5011030;28;11517;-49
2022/03/14 09:58:21;;;;;;;;;5.50;5.50;12.20;99.90;;;;;;5007917;28;11541;-46
2022/03/14 10:00:54;;;;;;;;;6.25;6.00;12.20;99.90;;;;;;5009768;28;11526;-46
2022/03/14 10:03:26;;;;;;;;;9.50;9.50;12.10;99.90;;;;;;5008218;28;12256;-47
2022/03/14 10:05:57;;;;;;;;;7.00;7.00;12.10;99.90;;;;;;5010341;28;11565;-48
2022/03/14 10:08:27;;;;;;;;;6.50;6.50;12.20;99.90;;;;;;5010926;28;11586;-48
2022/03/14 10:10:59;;;;;;;;;5.00;5.00;12.10;99.90;;;;;;5010790;28;12079;-48
2022/03/14 10:13:42;;;;;;;;;6.00;6.00;12.10;99.90;;;;;;5009279;28;11532;-48
2022/03/14 10:16:15;;;;;;;;;3.25;3.25;12.00;99.90;;;;;;5009320;28;11639;-48
2022/03/14 10:18:55;;;;;;;;;4.75;4.75;12.00;99.90;;;;;;5007917;28;11004;-49
2022/03/14 10:21:32;;;;;;;;;5.00;4.25;12.00;99.90;;;;;;5013643;28;12362;-48
2022/03/14 10:24:08;;;;;;;;;3.00;3.00;12.00;99.90;;;;;;5012190;28;11546;-45
2022/03/14 10:26:42;;;;;;;;;4.25;4.25;11.90;99.90;;;;;;5006419;28;11534;-47
2022/03/14 10:29:15;;;;;;;;;5.00;3.50;11.90;99.90;;;;;;5009041;28;11541;-49
2022/03/14 10:31:56;;;;;;;;;4.00;4.00;11.90;99.90;;;;;;5004585;28;11504;-49
2022/03/14 10:34:27;;;;;;;;;5.00;5.00;11.90;99.90;;;;;;5008189;28;11566;-46
2022/03/14 10:36:59;;;;;;;;;10.25;10.25;11.80;99.90;;;;;;5010573;28;11551;-47
2022/03/14 10:39:33;;;;;;;;;6.50;6.50;11.80;99.90;;;;;;5011762;28;11563;-46
2022/03/14 10:42:08;;;;;;;;;8.00;6.50;11.80;99.90;;;;;;5011404;28;11134;-45
2022/03/14 10:44:55;;;;;;;;;10.75;9.50;11.80;99.90;;;;;;5008789;28;11546;-48
2022/03/14 10:47:27;;;;;;;;;10.00;8.50;11.80;99.90;;;;;;5006524;28;11517;-47
2022/03/14 10:49:58;;;;;;;;;10.00;10.00;11.80;99.90;;;;;;5011166;28;11644;-46
2022/03/14 10:52:29;;;;;;;;;9.50;9.50;11.70;99.90;;;;;;5008364;28;11497;-48
2022/03/14 10:54:59;;;;;;;;;6.75;6.75;11.70;99.90;;;;;;5012648;28;12221;-48
2022/03/14 10:57:31;;;;;;;;;8.50;8.50;11.70;99.90;;;;;;5012257;28;11515;-48
2022/03/14 11:00:02;;;;;;;;;8.00;8.00;11.70;99.90;;;;;;5011363;28;12307;-46
2022/03/14 11:02:33;;;;;;;;;7.75;7.75;11.60;99.90;;;;;;5010531;28;11652;-47
2022/03/14 11:05:05;;;;;;;;;6.00;6.00;11.60;99.90;;;;;;5012414;28;11559;-47
2022/03/14 11:07:36;;;;;;;;;11.25;11.25;11.60;99.90;;;;;;5005807;28;11518;-47
2022/03/14 11:10:07;;;;;;;;;10.25;9.75;11.60;99.90;;;;;;5011165;28;11542;-46
2022/03/14 11:12:38;;;;;;;;;11.50;9.25;11.60;99.90;;;;;;5008488;28;11566;-45
2022/03/14 11:15:09;;;;;;;;;10.50;10.50;11.60;99.90;;;;;;5010739;28;11519;-45
2022/03/14 11:17:39;;;;;;;;;12.75;11.25;11.60;99.90;;;;;;5011140;28;11697;-45
2022/03/14 11:20:29;;;;;;;;;9.75;9.75;11.50;99.90;;;;;;5022766;28;11547;-46
2022/03/14 11:22:59;;;;;;;;;9.75;8.25;11.60;99.90;;;;;;5011780;28;12333;-44
2022/03/14 11:25:31;;;;;;;;;10.00;9.75;11.50;99.90;;;;;;5008586;28;11545;-45
2022/03/14 11:28:03;;;;;;;;;12.75;11.00;11.50;99.90;;;;;;5015442;28;11584;-49
2022/03/14 11:30:36;;;;;;;;;10.75;10.75;11.50;99.90;;;;;;5010398;28;11541;-45
2022/03/14 11:33:14;;;;;;;;;10.75;9.25;11.50;99.90;;;;;;5012195;28;11660;-48
2022/03/14 11:35:47;;;;;;;;;11.25;11.25;11.40;99.90;;;;;;5006959;28;11515;-46
2022/03/14 11:38:18;;;;;;;;;10.00;10.00;11.50;99.90;;;;;;5009547;28;11545;-48
2022/03/14 11:40:51;;;;;;;;;10.00;7.50;11.40;99.90;;;;;;5008340;28;11834;-47
2022/03/14 11:43:23;;;;;;;;;7.25;7.25;11.40;99.90;;;;;;5004180;28;11509;-45
2022/03/14 11:45:55;;;;;;;;;8.25;8.25;11.40;99.90;;;;;;5006374;28;11540;-47
2022/03/14 11:48:34;;;;;;;;;7.00;7.00;11.40;99.90;;;;;;5011085;28;11583;-45
2022/03/14 11:51:08;;;;;;;;;4.75;4.75;11.40;99.90;;;;;;5008337;28;11520;-46
2022/03/14 11:53:50;;;;;;;;;6.75;6.75;11.30;99.90;;;;;;5004821;28;12268;-46
2022/03/14 11:56:20;;;;;;;;;4.50;4.50;11.40;99.90;;;;;;5006151;28;11592;-47
2022/03/14 11:58:53;;;;;;;;;3.75;3.25;11.30;99.90;;;;;;5025845;28;11518;-48
2022/03/14 12:01:29;;;;;;;;;5.50;4.00;11.30;99.90;;;;;;5002658;28;11511;-48
2022/03/14 12:04:05;;;;;;;;;6.00;5.00;11.30;99.90;;;;;;5008426;28;11587;-46
2022/03/14 12:06:47;;;;;;;;;4.75;4.50;11.30;99.90;;;;;;5009889;28;12247;-48
2022/03/14 12:09:27;;;;;;;;;3.75;3.75;11.30;99.90;;;;;;5025360;28;11520;-49
2022/03/14 12:12:00;;;;;;;;;7.00;5.25;11.30;99.90;;;;;;5013394;28;12267;-47
2022/03/14 12:14:53;;;;;;;;;2.50;2.50;11.20;99.90;;;;;;5009711;28;12300;-48
2022/03/14 12:17:26;;;;;;;;;3.00;3.00;11.20;99.90;;;;;;5008276;28;11473;-48
2022/03/14 12:20:03;;;;;;;;;3.75;3.75;11.20;99.90;;;;;;5012652;28;11491;-45
2022/03/14 12:22:37;;;;;;;;;1.75;1.75;11.20;99.90;;;;;;5014417;28;11490;-45
2022/03/14 12:25:13;;;;;;;;;3.00;3.00;11.20;99.90;;;;;;5015569;28;11676;-45
2022/03/14 12:27:44;;;;;;;;;6.50;3.50;11.20;99.90;;;;;;5012379;28;11656;-46
2022/03/14 12:30:20;;;;;;;;;4.00;4.00;11.20;99.90;;;;;;5015634;28;12329;-48
2022/03/14 12:32:54;;;;;;;;;5.50;5.50;11.10;99.90;;;;;;5011328;28;11537;-50
2022/03/14 12:35:29;;;;;;;;;2.75;2.75;11.10;99.90;;;;;;5009984;28;11566;-46
2022/03/14 12:38:22;;;;;;;;;6.00;5.00;11.10;99.90;;;;;;5012273;28;11522;-49
2022/03/14 12:40:56;;;;;;;;;5.75;5.75;11.10;99.90;;;;;;5016873;28;12254;-48
2022/03/14 12:43:31;;;;;;;;;5.75;5.75;11.10;99.90;;;;;;5012860;28;11673;-48
2022/03/14 12:46:03;;;;;;;;;4.50;4.50;11.10;99.90;;;;;;5009270;28;11486;-47
2022/03/14 12:48:38;;;;;;;;;5.50;5.50;11.10;99.90;;;;;;5011152;28;12115;-47
2022/03/14 12:51:10;;;;;;;;;4.75;3.00;11.10;99.90;;;;;;5015563;28;11512;-47
2022/03/14 12:53:46;;;;;;;;;3.75;3.75;11.10;99.90;;;;;;5018035;28;11496;-46
2022/03/14 12:56:29;;;;;;;;;4.50;4.50;11.10;99.90;;;;;;5016630;28;11526;-45
2022/03/14 12:59:12;;;;;;;;;5.00;3.00;11.00;99.90;;;;;;5016140;28;11475;-47
2022/03/14 13:01:42;;;;;;;;;1.50;1.50;11.00;99.90;;;;;;5007707;28;11533;-46
2022/03/14 13:04:15;;;;;;;;;5.00;5.00;11.00;99.90;;;;;;5009202;28;11558;-47
2022/03/14 13:06:51;;;;;;;;;4.75;4.75;11.00;99.90;;;;;;5009647;28;11579;-45
2022/03/14 13:09:52;;;;;;;;;5.00;5.00;10.90;99.90;;;;;;5015028;28;11555;-49
2022/03/14 13:12:22;;;;;;;;;5.25;5.00;10.90;99.90;;;;;;5012048;28;11517;-47